Birch Run, MI

5:16 AM EST on November 28, 2014 (GMT -0500)
Montrose | Change Station
CLOSE
Current Station
Personal Weather Station
Location: Montrose, MI
Elevation: 673 ft
Nearby Weather Stations

Elev 673 ft 43.18 °N, 83.88 °W | Updated 10 seconds ago

Clear
Clear
15.4 °F
Feels Like 15 °F
N
0.0
Wind Variable Wind from West
Gusts 0.0 mph

Today
High -- | Low -- °F
--% Chance of Precip.
Yesterday
High -- | Low -- °F
Precip. -- in
7:44 AM 5:01 PM
Waxing Crescent, 39% visible
Pressure 30.33 in
Visibility 10.0 miles
Clouds Clear
Windchill 15 °F
Dew Point 6 °F
Humidity 66%
Rainfall 0.00 in
Snow Depth Not available.
UV 0.0 out of 12
Pollen .10 out of 12
Air Quality Not available.
Flu Activity Not available.
METAR KHYX 280955Z AUTO 28004KT 10SM CLR M07/M11 A3033 RMK AO2

More Conditions Fewer Conditions

Pressure 30.33 in
Visibility 10.0 miles
Clouds Clear
Windchill 15 °F
Dew Point 6 °F
Humidity 66%
Rainfall 0.00 in
Snow Depth Not available.
UV 0.0 out of 12
Pollen .10 out of 12
Air Quality Not available.
Flu Activity Not available.
METAR KHYX 280955Z AUTO 28004KT 10SM CLR M07/M11 A3033 RMK AO2

More Conditions Fewer Conditions

10-Day Weather Forecast

Almanac

Astronomy

Nov. 28, 2014 Rise Set
Actual Time
Civil Twilight
Nautical Twilight
Astronomical Twilight
Moon
Length of Visible Light
Length of Day
Tomorrow will be .
, % of the Moon is Illuminated

Today's Extremes

State Highs State Lows

Community

WunderPhotos

Upload Photos

1,774,192 photos uploaded!

WunderBlogs® & News

Nearby

Air Quality

  Air Quality AQ Index Pollutant
Not available.

Snow Depth

Station Depth Elevation

Earthquake Activity

City Distance Mag. Time & Date
Minimum magnitude displayed is 2.5.

Coastal Water Temperatures

Place Temperature

Nearby Weather Stations